createdAt,value
2018-01-22T00:00:22.636Z,100425.44
2018-01-22T00:02:48.796Z,100424.21
2018-01-22T00:05:14.970Z,100420.73
2018-01-22T00:07:41.220Z,100419.91
2018-01-22T00:10:07.384Z,100423.44
2018-01-22T00:12:33.598Z,100419.98
2018-01-22T00:14:59.881Z,100405.28
2018-01-22T00:17:26.060Z,100407.09
2018-01-22T00:19:52.243Z,100421.05
2018-01-22T00:22:18.381Z,100415.88
2018-01-22T00:24:44.557Z,100412.43
2018-01-22T00:27:10.779Z,100409.84
2018-01-22T00:29:36.999Z,100412.08
2018-01-22T00:32:03.172Z,100415.57
2018-01-22T00:34:29.325Z,100420.84
2018-01-22T00:36:55.529Z,100416.09
2018-01-22T00:39:21.910Z,100420.89
2018-01-22T00:41:48.067Z,100410.92
2018-01-22T00:44:14.302Z,100418.85
2018-01-22T00:46:40.510Z,100417.57
2018-01-22T00:49:06.800Z,100407.59
2018-01-22T00:51:32.971Z,100412.83
2018-01-22T00:53:59.222Z,100411.13
2018-01-22T00:56:25.483Z,100406.81
2018-01-22T00:58:51.692Z,100407.28
2018-01-22T01:01:17.884Z,100402.97
2018-01-22T01:03:44.017Z,100408.20
2018-01-22T01:06:10.257Z,100406.91
2018-01-22T01:08:36.499Z,100410.42
2018-01-22T01:11:02.664Z,100401.73
2018-01-22T01:13:28.878Z,100394.80
2018-01-22T01:15:55.097Z,100394.36
2018-01-22T01:18:21.324Z,100389.63
2018-01-22T01:20:47.462Z,100396.16
2018-01-22T01:23:13.660Z,100389.66
2018-01-22T01:25:39.826Z,100393.61
2018-01-22T01:28:05.998Z,100399.28
2018-01-22T01:30:32.168Z,100402.33
2018-01-22T01:32:58.346Z,100399.31
2018-01-22T01:35:24.489Z,100401.04
2018-01-22T01:37:50.629Z,100397.98
2018-01-22T01:40:18.019Z,100405.38
2018-01-22T01:42:44.218Z,100398.83
2018-01-22T01:45:10.511Z,100400.98
2018-01-22T01:47:36.690Z,100396.58
2018-01-22T01:50:02.909Z,100393.47
2018-01-22T01:52:29.134Z,100395.59
2018-01-22T01:54:55.266Z,100392.47
2018-01-22T01:57:21.502Z,100398.06
2018-01-22T01:59:47.681Z,100395.39
2018-01-22T02:02:13.821Z,100391.78
2018-01-22T02:04:40.076Z,100393.05
2018-01-22T02:07:06.209Z,100392.55
2018-01-22T02:09:32.565Z,100394.27
2018-01-22T02:11:58.703Z,100397.30
2018-01-22T02:14:24.937Z,100401.66
2018-01-22T02:16:51.096Z,100409.08
2018-01-22T02:19:17.317Z,100411.67
2018-01-22T02:21:43.618Z,100417.33
2018-01-22T02:24:09.759Z,100417.75
2018-01-22T02:26:35.907Z,100437.04
2018-01-22T02:29:02.161Z,100429.55
2018-01-22T02:31:28.317Z,100429.55
2018-01-22T02:33:54.478Z,100442.67
2018-01-22T02:36:20.620Z,100428.23
2018-01-22T02:38:46.824Z,100428.62
2018-01-22T02:41:13.008Z,100435.22
2018-01-22T02:43:39.318Z,100435.67
2018-01-22T02:46:05.549Z,100439.12
2018-01-22T02:48:31.723Z,100433.43
2018-01-22T02:50:57.947Z,100437.39
2018-01-22T02:53:25.043Z,100441.77
2018-01-22T02:55:51.163Z,100441.34
2018-01-22T02:58:17.330Z,100442.17
2018-01-22T03:00:43.555Z,100449.16
2018-01-22T03:03:09.681Z,100446.97
2018-01-22T03:05:35.810Z,100442.55
2018-01-22T03:08:02.036Z,100435.56
2018-01-22T03:10:28.206Z,100432.48
2018-01-22T03:12:54.342Z,100433.37
2018-01-22T03:15:20.533Z,100437.30
2018-01-22T03:17:46.652Z,100438.22
2018-01-22T03:20:12.877Z,100439.95
2018-01-22T03:22:39.009Z,100434.69
2018-01-22T03:25:05.161Z,100438.16
2018-01-22T03:27:31.326Z,100438.14
2018-01-22T03:29:57.528Z,100434.22
2018-01-22T03:32:23.687Z,100435.09
2018-01-22T03:34:49.910Z,100436.41
2018-01-22T03:37:16.055Z,100437.30
2018-01-22T03:39:42.260Z,100443.45
2018-01-22T03:42:08.461Z,100446.93
2018-01-22T03:44:34.580Z,100449.12
2018-01-22T03:47:00.782Z,100445.61
2018-01-22T03:49:26.986Z,100433.34
2018-01-22T03:51:53.126Z,100428.56
2018-01-22T03:54:19.333Z,100438.62
2018-01-22T03:56:45.501Z,100438.22
2018-01-22T03:59:11.701Z,100438.66
2018-01-22T04:01:37.979Z,100445.23
2018-01-22T04:04:04.103Z,100446.57
2018-01-22T04:06:30.249Z,100447.44
2018-01-22T04:08:56.458Z,100449.64
2018-01-22T04:11:22.581Z,100447.03
2018-01-22T04:13:48.720Z,100442.23
2018-01-22T04:16:14.906Z,100439.63
2018-01-22T04:18:41.072Z,100443.58
2018-01-22T04:21:07.237Z,100444.44
2018-01-22T04:23:33.500Z,100455.36
2018-01-22T04:25:59.626Z,100457.95
2018-01-22T04:28:25.784Z,100469.32
2018-01-22T04:30:51.985Z,100477.64
2018-01-22T04:33:18.128Z,100483.80
2018-01-22T04:35:44.315Z,100491.20
2018-01-22T04:38:10.505Z,100491.19
2018-01-22T04:40:36.725Z,100484.19
2018-01-22T04:43:02.909Z,100470.64
2018-01-22T04:45:29.096Z,100469.36
2018-01-22T04:47:55.248Z,100462.80
2018-01-22T04:50:21.459Z,100472.88
2018-01-22T04:52:47.617Z,100481.25
2018-01-22T04:55:13.781Z,100475.13
2018-01-22T04:57:39.936Z,100476.00
2018-01-22T05:00:06.264Z,100473.88
2018-01-22T05:02:32.384Z,100466.03
2018-01-22T05:04:58.552Z,100456.83
2018-01-22T05:07:25.558Z,100461.67
2018-01-22T05:09:51.762Z,100463.02
2018-01-22T05:12:17.915Z,100453.41
2018-01-22T05:14:44.114Z,100447.30
2018-01-22T05:17:10.313Z,100447.75
2018-01-22T05:19:36.507Z,100434.22
2018-01-22T05:22:02.653Z,100438.13
2018-01-22T05:24:28.841Z,100438.16
2018-01-22T05:26:55.006Z,100446.88
2018-01-22T05:29:21.214Z,100461.33
2018-01-22T05:31:47.454Z,100461.30
2018-01-22T05:34:13.598Z,100465.21
2018-01-22T05:36:39.756Z,100470.44
2018-01-22T05:39:06.500Z,100473.07
2018-01-22T05:41:32.726Z,100472.19
2018-01-22T05:43:58.884Z,100478.73
2018-01-22T05:46:25.209Z,100475.27
2018-01-22T05:48:51.366Z,100469.55
2018-01-22T05:51:17.578Z,100456.02
2018-01-22T05:53:43.790Z,100448.58
2018-01-22T05:56:09.968Z,100452.96
2018-01-22T05:58:36.234Z,100445.51
2018-01-22T06:01:02.424Z,100447.27
2018-01-22T06:03:28.620Z,100454.28
2018-01-22T06:05:54.809Z,100446.85
2018-01-22T06:08:20.962Z,100448.59
2018-01-22T06:10:47.210Z,100458.64
2018-01-22T06:13:13.362Z,100463.48
2018-01-22T06:15:39.583Z,100467.40
2018-01-22T06:18:05.783Z,100473.97
2018-01-22T06:20:32.991Z,100473.07
2018-01-22T06:22:59.145Z,100479.20
2018-01-22T06:25:25.387Z,100473.52
2018-01-22T06:27:51.695Z,100478.35
2018-01-22T06:30:17.927Z,100474.87
2018-01-22T06:32:44.107Z,100477.06
2018-01-22T06:35:10.273Z,100481.00
2018-01-22T06:37:36.454Z,100480.58
2018-01-22T06:40:02.652Z,100484.96
2018-01-22T06:42:28.800Z,100489.31
2018-01-22T06:44:54.988Z,100498.93
2018-01-22T06:47:21.225Z,100513.81
2018-01-22T06:49:47.532Z,100515.57
2018-01-22T06:52:13.725Z,100512.03
2018-01-22T06:54:39.880Z,100518.59
2018-01-22T06:57:06.098Z,100517.74
2018-01-22T06:59:32.399Z,100529.11
2018-01-22T07:01:58.567Z,100533.50
2018-01-22T07:04:24.736Z,100538.30
2018-01-22T07:06:50.906Z,100531.72
2018-01-22T07:09:17.061Z,100529.98
2018-01-22T07:11:43.337Z,100524.73
2018-01-22T07:14:09.524Z,100525.61
2018-01-22T07:16:36.352Z,100522.13
2018-01-22T07:19:02.610Z,100515.57
2018-01-22T07:21:28.792Z,100516.86
2018-01-22T07:23:54.954Z,100505.97
2018-01-22T07:26:21.129Z,100509.45
2018-01-22T07:28:47.345Z,100508.16
2018-01-22T07:31:13.563Z,100511.63
2018-01-22T07:33:39.729Z,100513.83
2018-01-22T07:36:05.953Z,100526.06
2018-01-22T07:38:32.853Z,100533.51
2018-01-22T07:40:59.103Z,100533.94
2018-01-22T07:43:25.260Z,100533.93
2018-01-22T07:45:51.499Z,100532.20
2018-01-22T07:48:17.684Z,100522.56
2018-01-22T07:50:43.886Z,100519.09
2018-01-22T07:53:10.040Z,100522.59
2018-01-22T07:55:36.204Z,100517.36
2018-01-22T07:58:02.400Z,100527.86
2018-01-22T08:00:28.596Z,100522.61
2018-01-22T08:02:54.743Z,100527.87
2018-01-22T08:05:20.877Z,100532.66
2018-01-22T08:07:47.048Z,100540.55
2018-01-22T08:10:13.268Z,100548.83
2018-01-22T08:12:39.449Z,100560.63
2018-01-22T08:15:05.671Z,100559.33
2018-01-22T08:17:31.913Z,100562.40
2018-01-22T08:19:58.157Z,100564.16
2018-01-22T08:22:24.336Z,100573.77
2018-01-22T08:24:50.482Z,100576.39
2018-01-22T08:27:16.646Z,100571.60
2018-01-22T08:29:42.832Z,100565.91
2018-01-22T08:32:09.063Z,100573.34
2018-01-22T08:34:35.356Z,100582.52
2018-01-22T08:37:01.608Z,100579.48
2018-01-22T08:39:27.720Z,100577.27
2018-01-22T08:41:53.942Z,100576.39
2018-01-22T08:44:20.191Z,100580.33
2018-01-22T08:46:46.425Z,100579.91
2018-01-22T08:49:12.600Z,100576.39
2018-01-22T08:51:38.930Z,100583.40
2018-01-22T08:54:05.077Z,100584.70
2018-01-22T08:56:31.227Z,100579.91
2018-01-22T08:58:57.468Z,100574.66
2018-01-22T09:01:24.238Z,100568.97
2018-01-22T09:03:50.402Z,100572.91
2018-01-22T09:06:16.570Z,100572.05
2018-01-22T09:08:42.724Z,100576.84
2018-01-22T09:11:08.925Z,100580.78
2018-01-22T09:13:35.096Z,100578.61
2018-01-22T09:16:01.354Z,100589.11
2018-01-22T09:18:27.510Z,100596.53
2018-01-22T09:20:53.823Z,100605.71
2018-01-22T09:23:20.868Z,100600.45
2018-01-22T09:25:47.032Z,100606.13
2018-01-22T09:28:13.291Z,100604.38
2018-01-22T09:30:39.486Z,100612.70
2018-01-22T09:33:05.637Z,100624.49
2018-01-22T09:35:31.923Z,100631.89
2018-01-22T09:37:58.102Z,100631.45
2018-01-22T09:40:24.347Z,100647.19
2018-01-22T09:42:50.490Z,100649.37
2018-01-22T09:45:16.784Z,100655.04
2018-01-22T09:47:42.946Z,100657.20
2018-01-22T09:50:09.192Z,100659.42
2018-01-22T09:52:35.435Z,100662.47
2018-01-22T09:55:01.696Z,100662.06
2018-01-22T09:57:27.796Z,100670.80
2018-01-22T09:59:53.923Z,100679.12
2018-01-22T10:02:20.035Z,100683.04
2018-01-22T10:04:46.131Z,100687.41
2018-01-22T10:07:12.287Z,100691.77
2018-01-22T10:09:41.625Z,100689.58
2018-01-22T10:12:08.335Z,100695.71
2018-01-22T10:14:34.637Z,100699.64
2018-01-22T10:17:00.826Z,100704.02
2018-01-22T10:19:26.988Z,100706.20
2018-01-22T10:21:53.187Z,100702.69
2018-01-22T10:24:19.421Z,100703.16
2018-01-22T10:26:45.762Z,100707.96
2018-01-22T10:29:12.048Z,100717.16
2018-01-22T10:31:38.324Z,100715.83
2018-01-22T10:34:04.773Z,100720.21
2018-01-22T10:36:30.914Z,100722.82
2018-01-22T10:38:57.106Z,100729.82
2018-01-22T10:41:23.309Z,100730.27
2018-01-22T10:43:49.439Z,100735.94
2018-01-22T10:46:15.732Z,100739.89
2018-01-22T10:48:41.895Z,100746.47
2018-01-22T10:51:08.102Z,100750.83
2018-01-22T10:53:34.232Z,100746.47
2018-01-22T10:56:00.382Z,100745.59
2018-01-22T10:58:26.588Z,100746.02
2018-01-22T11:00:52.824Z,100754.75
2018-01-22T11:03:18.991Z,100761.75
2018-01-22T11:05:45.240Z,100761.31
2018-01-22T11:08:11.400Z,100762.17
2018-01-22T11:10:37.575Z,100763.91
2018-01-22T11:13:03.812Z,100762.14
2018-01-22T11:15:36.003Z,100760.83
2018-01-22T11:18:02.152Z,100756.02
2018-01-22T11:20:28.331Z,100759.92
2018-01-22T11:22:54.529Z,100763.83
2018-01-22T11:25:20.683Z,100765.18
2018-01-22T11:27:46.872Z,100770.46
2018-01-22T11:30:13.033Z,100774.39
2018-01-22T11:32:39.502Z,100767.39
2018-01-22T11:35:05.687Z,100764.34
2018-01-22T11:37:31.818Z,100774.88
2018-01-22T11:39:59.032Z,100774.45
2018-01-22T11:42:25.289Z,100766.55
2018-01-22T11:44:53.298Z,100772.70
2018-01-22T11:47:19.544Z,100774.88
2018-01-22T11:49:45.740Z,100777.95
2018-01-22T11:52:11.977Z,100774.45
2018-01-22T11:54:38.201Z,100774.47
2018-01-22T11:57:04.424Z,100788.92
2018-01-22T11:59:30.744Z,100790.23
2018-01-22T12:01:56.928Z,100785.87
2018-01-22T12:04:23.182Z,100785.41
2018-01-22T12:06:49.395Z,100782.80
2018-01-22T12:09:15.598Z,100794.16
2018-01-22T12:11:41.764Z,100794.17
2018-01-22T12:14:07.944Z,100798.11
2018-01-22T12:16:34.181Z,100802.02
2018-01-22T12:19:00.383Z,100809.47
2018-01-22T12:21:26.579Z,100812.95
2018-01-22T12:23:52.761Z,100823.00
2018-01-22T12:26:18.937Z,100822.58
2018-01-22T12:28:45.113Z,100820.41
2018-01-22T12:31:11.307Z,100826.09
2018-01-22T12:33:37.519Z,100826.54
2018-01-22T12:36:03.786Z,100824.32
2018-01-22T12:38:29.968Z,100827.39
2018-01-22T12:40:56.279Z,100816.47
2018-01-22T12:43:22.477Z,100817.34
2018-01-22T12:45:48.712Z,100823.04
2018-01-22T12:48:14.982Z,100827.39
2018-01-22T12:50:41.258Z,100832.23
2018-01-22T12:53:07.563Z,100841.41
2018-01-22T12:55:34.089Z,100842.70
2018-01-22T12:58:01.453Z,100863.70
2018-01-22T13:00:27.767Z,100853.64
2018-01-22T13:02:53.994Z,100859.34
2018-01-22T13:05:20.233Z,100865.47
2018-01-22T13:07:46.476Z,100864.16
2018-01-22T13:10:12.786Z,100868.97
2018-01-22T13:12:38.961Z,100886.02
2018-01-22T13:15:05.190Z,100878.14
2018-01-22T13:17:31.438Z,100886.89
2018-01-22T13:19:58.932Z,100892.14
2018-01-22T13:22:25.088Z,100893.03
2018-01-22T13:24:51.380Z,100889.52
2018-01-22T13:27:17.569Z,100900.92
2018-01-22T13:29:43.823Z,100902.23
2018-01-22T13:32:10.021Z,100910.97
2018-01-22T13:34:36.233Z,100898.71
2018-01-22T13:37:02.552Z,100906.14
2018-01-22T13:39:28.819Z,100903.06
2018-01-22T13:41:56.177Z,100905.70
2018-01-22T13:44:22.452Z,100914.47
2018-01-22T13:46:48.838Z,100919.27
2018-01-22T13:49:15.224Z,100925.37
2018-01-22T13:51:41.413Z,100929.31
2018-01-22T13:54:07.609Z,100942.02
2018-01-22T13:56:33.836Z,100940.67
2018-01-22T13:59:00.010Z,100939.36
2018-01-22T14:01:26.304Z,100939.81
2018-01-22T14:03:52.649Z,100950.31
2018-01-22T14:06:18.845Z,100953.34
2018-01-22T14:08:45.019Z,100955.97
2018-01-22T14:11:11.285Z,100965.16
2018-01-22T14:13:37.485Z,100973.88
2018-01-22T14:16:03.729Z,100978.27
2018-01-22T14:18:29.956Z,100980.03
2018-01-22T14:20:56.235Z,100992.70
2018-01-22T14:23:22.431Z,100997.95
2018-01-22T14:25:48.645Z,101012.83
2018-01-22T14:28:14.878Z,101016.31
2018-01-22T14:30:41.094Z,101028.98
2018-01-22T14:33:07.286Z,101031.16
2018-01-22T14:35:33.476Z,101045.58
2018-01-22T14:37:59.670Z,101047.73
2018-01-22T14:40:25.842Z,101059.08
2018-01-22T14:42:52.062Z,101053.81
2018-01-22T14:45:18.347Z,101059.02
2018-01-22T14:47:44.559Z,101071.65
2018-01-22T14:50:10.768Z,101073.86
2018-01-22T14:52:37.031Z,101074.73
2018-01-22T14:55:03.281Z,101079.98
2018-01-22T14:57:29.451Z,101093.95
2018-01-22T14:59:55.681Z,101100.96
2018-01-22T15:02:21.906Z,101122.38
2018-01-22T15:04:53.385Z,101123.23
2018-01-22T15:07:19.679Z,101132.86
2018-01-22T15:09:45.920Z,101136.80
2018-01-22T15:12:12.072Z,101142.46
2018-01-22T15:14:38.296Z,101149.06
2018-01-22T15:17:04.472Z,101164.76
2018-01-22T15:19:30.886Z,101156.02
2018-01-22T15:21:57.165Z,101147.75
2018-01-22T15:24:23.376Z,101137.22
2018-01-22T15:26:49.612Z,101155.99
2018-01-22T15:29:15.834Z,101157.72
2018-01-22T15:31:42.068Z,101166.47
2018-01-22T15:34:08.354Z,101171.26
2018-01-22T15:36:34.669Z,101172.12
2018-01-22T15:39:00.996Z,101172.55
2018-01-22T15:41:27.406Z,101182.13
2018-01-22T15:43:53.671Z,101187.80
2018-01-22T15:46:20.118Z,101193.89
2018-01-22T15:48:46.370Z,101192.96
2018-01-22T15:51:12.609Z,101200.36
2018-01-22T15:53:38.880Z,101208.61
2018-01-22T15:56:05.216Z,101211.22
2018-01-22T15:58:31.458Z,101206.83
2018-01-22T16:00:57.752Z,101211.58
2018-01-22T16:03:24.075Z,101211.97
2018-01-22T16:05:50.305Z,101218.45
2018-01-22T16:08:16.578Z,101225.41
2018-01-22T16:10:43.065Z,101234.06
2018-01-22T16:13:09.847Z,101243.19
2018-01-22T16:15:36.095Z,101247.49
2018-01-22T16:18:02.308Z,101250.50
2018-01-22T16:20:28.584Z,101254.78
2018-01-22T16:22:54.788Z,101261.32
2018-01-22T16:25:20.986Z,101268.23
2018-01-22T16:27:47.243Z,101271.66
2018-01-22T16:30:13.479Z,101269.88
2018-01-22T16:32:39.657Z,101295.56
2018-01-22T16:35:05.889Z,101302.53
2018-01-22T16:37:32.063Z,101310.30
2018-01-22T16:39:58.266Z,101322.88
2018-01-22T16:42:25.468Z,101331.13
2018-01-22T16:44:51.689Z,101335.39
2018-01-22T16:47:24.757Z,101340.59
2018-01-22T16:49:51.003Z,101341.02
2018-01-22T16:52:17.252Z,101339.74
2018-01-22T16:54:43.471Z,101352.36
2018-01-22T16:57:09.692Z,101359.73
2018-01-22T16:59:35.991Z,101364.53
2018-01-22T17:02:02.232Z,101373.16
2018-01-22T17:04:28.432Z,101371.45
2018-01-22T17:06:54.621Z,101382.78
2018-01-22T17:09:20.852Z,101380.09
2018-01-22T17:11:47.116Z,101385.67
2018-01-22T17:14:13.309Z,101389.27
2018-01-22T17:16:39.551Z,101388.77
2018-01-22T17:19:05.781Z,101393.53
2018-01-22T17:21:32.001Z,101404.84
2018-01-22T17:23:58.180Z,101404.73
2018-01-22T17:26:24.377Z,101417.82
2018-01-22T17:28:50.668Z,101420.45
2018-01-22T17:31:17.027Z,101421.17
2018-01-22T17:33:43.269Z,101431.57
2018-01-22T17:36:09.432Z,101437.58
2018-01-22T17:38:35.625Z,101449.80
2018-01-22T17:41:01.816Z,101453.59
2018-01-22T17:43:28.005Z,101455.84
2018-01-22T17:45:54.264Z,101462.46
2018-01-22T17:48:20.417Z,101463.87
2018-01-22T17:50:46.869Z,101467.50
2018-01-22T17:53:13.051Z,101471.55
2018-01-22T17:55:39.190Z,101483.39
2018-01-22T17:58:05.494Z,101472.97
2018-01-22T18:00:31.687Z,101469.50
2018-01-22T18:02:57.958Z,101476.88
2018-01-22T18:05:24.179Z,101476.47
2018-01-22T18:07:50.365Z,101486.81
2018-01-22T18:10:16.596Z,101488.55
2018-01-22T18:12:42.834Z,101490.74
2018-01-22T18:15:09.135Z,101490.78
2018-01-22T18:17:35.437Z,101487.71
2018-01-22T18:20:01.717Z,101493.12
2018-01-22T18:22:27.999Z,101499.34
2018-01-22T18:24:54.477Z,101502.05
2018-01-22T18:27:20.807Z,101498.22
2018-01-22T18:29:47.030Z,101506.27
2018-01-22T18:32:13.291Z,101505.92
2018-01-22T18:34:39.571Z,101513.02
2018-01-22T18:37:05.752Z,101513.42
2018-01-22T18:39:31.986Z,101516.13
2018-01-22T18:41:58.439Z,101523.20
2018-01-22T18:44:24.748Z,101521.50
2018-01-22T18:46:52.732Z,101526.38
2018-01-22T18:49:18.976Z,101520.70
2018-01-22T18:51:45.380Z,101525.13
2018-01-22T18:54:11.719Z,101528.20
2018-01-22T18:56:37.858Z,101536.94
2018-01-22T18:59:04.091Z,101532.20
2018-01-22T19:01:30.436Z,101531.37
2018-01-22T19:03:56.671Z,101538.00
2018-01-22T19:06:22.831Z,101544.14
2018-01-22T19:08:49.033Z,101542.41
2018-01-22T19:11:15.337Z,101544.23
2018-01-22T19:13:41.552Z,101548.64
2018-01-22T19:16:07.828Z,101548.60
2018-01-22T19:18:34.010Z,101549.50
2018-01-22T19:21:00.308Z,101558.69
2018-01-22T19:23:26.463Z,101561.84
2018-01-22T19:25:52.631Z,101564.90
2018-01-22T19:28:18.780Z,101560.93
2018-01-22T19:30:45.018Z,101566.18
2018-01-22T19:33:11.271Z,101563.97
2018-01-22T19:35:37.452Z,101552.66
2018-01-22T19:38:03.651Z,101556.56
2018-01-22T19:40:29.904Z,101564.85
2018-01-22T19:42:56.168Z,101553.92
2018-01-22T19:45:22.377Z,101567.55
2018-01-22T19:47:48.570Z,101570.62
2018-01-22T19:50:14.722Z,101572.44
2018-01-22T19:52:41.662Z,101576.81
2018-01-22T19:55:08.003Z,101583.80
2018-01-22T19:57:34.169Z,101582.49
2018-01-22T20:00:00.336Z,101594.66
2018-01-22T20:02:26.580Z,101591.61
2018-01-22T20:04:52.768Z,101588.08
2018-01-22T20:07:18.959Z,101595.52
2018-01-22T20:09:45.225Z,101612.53
2018-01-22T20:12:11.454Z,101602.03
2018-01-22T20:14:37.616Z,101608.12
2018-01-22T20:17:03.815Z,101611.61
2018-01-22T20:19:30.008Z,101619.45
2018-01-22T20:21:57.002Z,101618.13
2018-01-22T20:24:23.212Z,101622.94
2018-01-22T20:26:49.377Z,101628.19
2018-01-22T20:29:15.520Z,101628.20
2018-01-22T20:31:41.707Z,101624.69
2018-01-22T20:34:07.947Z,101627.72
2018-01-22T20:36:35.290Z,101625.93
2018-01-22T20:39:01.592Z,101621.04
2018-01-22T20:41:27.913Z,101625.42
2018-01-22T20:43:54.054Z,101634.62
2018-01-22T20:46:20.288Z,101650.30
2018-01-22T20:48:46.520Z,101650.31
2018-01-22T20:51:12.727Z,101659.03
2018-01-22T20:53:39.041Z,101660.31
2018-01-22T20:56:05.200Z,101670.83
2018-01-22T20:58:32.773Z,101669.16
2018-01-22T21:00:58.933Z,101680.86
2018-01-22T21:03:25.172Z,101680.38
2018-01-22T21:05:51.405Z,101677.28
2018-01-22T21:08:17.562Z,101683.81
2018-01-22T21:10:43.765Z,101685.54
2018-01-22T21:13:09.960Z,101692.97
2018-01-22T21:15:36.171Z,101695.10
2018-01-22T21:18:02.419Z,101692.44
2018-01-22T21:20:28.977Z,101696.39
2018-01-22T21:22:55.217Z,101697.70
2018-01-22T21:25:21.417Z,101699.89
2018-01-22T21:27:47.570Z,101698.14
2018-01-22T21:30:13.725Z,101704.34
2018-01-22T21:32:39.971Z,101713.06
2018-01-22T21:35:06.180Z,101724.02
2018-01-22T21:37:32.386Z,101725.76
2018-01-22T21:39:58.607Z,101723.98
2018-01-22T21:42:24.824Z,101730.50
2018-01-22T21:44:50.988Z,101731.80
2018-01-22T21:47:17.256Z,101729.11
2018-01-22T21:49:43.421Z,101731.29
2018-01-22T21:52:09.597Z,101731.81
2018-01-22T21:54:35.790Z,101741.38
2018-01-22T21:57:02.029Z,101747.08
2018-01-22T21:59:28.175Z,101747.55
2018-01-22T22:01:54.425Z,101746.59
2018-01-22T22:04:20.570Z,101740.89
2018-01-22T22:06:46.739Z,101747.88
2018-01-22T22:09:12.933Z,101748.66
2018-01-22T22:11:39.099Z,101752.48
2018-01-22T22:14:05.435Z,101750.27
2018-01-22T22:16:33.194Z,101758.94
2018-01-22T22:18:59.356Z,101754.53
2018-01-22T22:21:25.588Z,101746.19
2018-01-22T22:23:51.790Z,101752.67
2018-01-22T22:26:17.952Z,101750.86
2018-01-22T22:28:44.209Z,101755.14
2018-01-22T22:31:10.377Z,101763.77
2018-01-22T22:33:36.612Z,101760.66
2018-01-22T22:36:02.797Z,101765.02
2018-01-22T22:38:28.998Z,101764.11
2018-01-22T22:40:55.184Z,101762.32
2018-01-22T22:43:21.449Z,101772.30
2018-01-22T22:45:47.652Z,101775.31
2018-01-22T22:48:13.798Z,101775.73
2018-01-22T22:50:39.989Z,101781.48
2018-01-22T22:53:06.205Z,101775.90
2018-01-22T22:55:32.410Z,101779.85
2018-01-22T22:57:58.589Z,101792.99
2018-01-22T23:00:24.785Z,101797.45
2018-01-22T23:02:50.970Z,101801.03
2018-01-22T23:05:18.197Z,101801.92
2018-01-22T23:07:44.451Z,101807.18
2018-01-22T23:10:10.613Z,101810.73
2018-01-22T23:12:36.842Z,101807.63
2018-01-22T23:15:03.082Z,101807.13
2018-01-22T23:17:29.291Z,101819.25
2018-01-22T23:19:55.494Z,101821.42
2018-01-22T23:22:21.692Z,101821.33
2018-01-22T23:24:48.081Z,101819.61
2018-01-22T23:27:14.414Z,101834.44
2018-01-22T23:29:40.573Z,101834.39
2018-01-22T23:32:06.749Z,101833.02
2018-01-22T23:34:32.909Z,101833.95
2018-01-22T23:36:59.066Z,101831.34
2018-01-22T23:39:25.255Z,101836.49
2018-01-22T23:41:51.426Z,101836.87
2018-01-22T23:44:17.623Z,101840.36
2018-01-22T23:46:43.812Z,101844.77
2018-01-22T23:49:10.005Z,101843.95
2018-01-22T23:51:36.177Z,101843.93
2018-01-22T23:54:02.382Z,101845.25
2018-01-22T23:56:28.512Z,101847.36
2018-01-22T23:58:54.660Z,101850.37
